createdAt,value
2023-10-22T03:32:04.329Z,1.73
2023-10-22T03:34:31.815Z,3.53
2023-10-22T03:36:58.917Z,1.70
2023-10-22T03:39:25.957Z,1.70
2023-10-22T03:41:53.091Z,2.40
2023-10-22T03:44:20.177Z,0.95
2023-10-22T03:46:48.039Z,1.55
2023-10-22T03:49:15.472Z,2.25
2023-10-22T03:51:42.559Z,1.80
2023-10-22T03:54:09.943Z,1.52
2023-10-22T03:56:37.160Z,1.02
2023-10-22T03:59:04.225Z,0.70
2023-10-22T04:01:31.547Z,1.55
2023-10-22T04:03:58.719Z,1.20
2023-10-22T04:06:25.992Z,1.95
2023-10-22T04:08:53.058Z,6.35
2023-10-22T04:11:21.248Z,2.45
2023-10-22T04:13:48.295Z,1.95
2023-10-22T04:16:18.193Z,1.55
2023-10-22T04:18:45.348Z,1.15
2023-10-22T04:21:16.193Z,1.30
2023-10-22T04:26:16.472Z,1.02
2023-10-22T04:28:47.535Z,1.15
2023-10-22T04:31:14.721Z,1.20
2023-10-22T04:33:41.927Z,1.15
2023-10-22T04:36:16.591Z,2.53
2023-10-22T04:38:43.786Z,1.42
2023-10-22T04:41:14.291Z,1.15
2023-10-22T04:43:42.410Z,0.95
2023-10-22T04:46:09.809Z,2.75
2023-10-22T04:48:37.165Z,0.70
2023-10-22T04:51:05.452Z,1.63
2023-10-22T04:53:32.640Z,1.50
2023-10-22T04:55:59.852Z,1.10
2023-10-22T04:58:29.080Z,1.10
2023-10-22T05:00:56.934Z,2.78
2023-10-22T05:03:24.218Z,1.35
2023-10-22T05:05:51.475Z,1.45
2023-10-22T05:08:18.595Z,1.30
2023-10-22T05:10:45.770Z,1.88
2023-10-22T05:13:12.813Z,1.52
2023-10-22T05:15:39.837Z,2.92
2023-10-22T05:18:08.543Z,1.58
2023-10-22T05:20:35.747Z,1.60
2023-10-22T05:23:05.616Z,2.00
2023-10-22T05:25:32.779Z,1.50
2023-10-22T05:27:59.934Z,1.92
2023-10-22T05:30:27.010Z,1.38
2023-10-22T05:32:54.151Z,1.77
2023-10-22T05:35:21.234Z,1.17
2023-10-22T05:37:49.714Z,1.95
2023-10-22T05:40:17.512Z,0.95
2023-10-22T05:42:44.557Z,1.33
2023-10-22T05:45:11.812Z,0.98
2023-10-22T05:47:38.927Z,1.08
2023-10-22T05:50:06.470Z,0.88
2023-10-22T05:52:33.445Z,1.02
2023-10-22T05:55:00.667Z,1.48
2023-10-22T05:57:29.624Z,1.20
2023-10-22T05:59:59.183Z,1.05
2023-10-22T06:02:26.412Z,0.73
2023-10-22T06:04:53.877Z,1.00
2023-10-22T06:07:21.052Z,0.80
2023-10-22T06:09:49.624Z,0.82
2023-10-22T06:12:16.784Z,0.88
2023-10-22T06:14:43.891Z,0.93
2023-10-22T06:17:10.979Z,1.13
2023-10-22T06:19:37.973Z,4.30
2023-10-22T06:22:05.522Z,1.67
2023-10-22T06:24:33.503Z,0.60
2023-10-22T06:27:02.748Z,1.35
2023-10-22T06:29:30.122Z,1.10
2023-10-22T06:31:57.930Z,0.88
2023-10-22T06:34:25.771Z,2.22
2023-10-22T06:36:54.505Z,1.95
2023-10-22T06:39:22.553Z,1.65
2023-10-22T06:41:50.707Z,1.40
2023-10-22T06:44:22.290Z,1.73
2023-10-22T06:46:49.814Z,1.90
2023-10-22T06:49:16.927Z,1.65
2023-10-22T06:51:44.309Z,0.98
2023-10-22T06:54:11.660Z,2.05
2023-10-22T06:56:38.746Z,3.05
2023-10-22T06:59:05.822Z,1.63
2023-10-22T07:01:32.944Z,3.05
2023-10-22T07:04:01.196Z,1.90
2023-10-22T07:06:29.453Z,1.77
2023-10-22T07:08:56.465Z,0.80
2023-10-22T07:11:24.170Z,2.10
2023-10-22T07:13:51.547Z,2.22
2023-10-22T07:16:18.797Z,2.72
2023-10-22T07:18:45.921Z,1.38
2023-10-22T07:21:13.027Z,2.30
2023-10-22T07:23:40.169Z,1.98
2023-10-22T07:26:07.255Z,2.60
2023-10-22T07:28:34.425Z,1.50
2023-10-22T07:31:01.573Z,3.58
2023-10-22T07:33:29.423Z,1.20
2023-10-22T07:35:57.697Z,1.20
2023-10-22T07:38:26.172Z,1.27
2023-10-22T07:40:57.847Z,1.63
2023-10-22T07:43:26.540Z,1.05
2023-10-22T07:45:53.817Z,1.35
2023-10-22T07:48:21.051Z,4.07
2023-10-22T07:50:48.304Z,1.30
2023-10-22T07:53:15.745Z,2.10
2023-10-22T07:55:43.833Z,2.22
2023-10-22T07:58:10.985Z,1.15
2023-10-22T08:00:38.135Z,1.42
2023-10-22T08:03:05.181Z,1.42
2023-10-22T08:05:33.118Z,2.72
2023-10-22T08:08:00.247Z,2.55
2023-10-22T08:10:28.037Z,1.10
2023-10-22T08:12:55.035Z,2.10
2023-10-22T08:15:22.136Z,1.15
2023-10-22T08:17:49.290Z,1.35
2023-10-22T08:20:16.466Z,3.00
2023-10-22T08:22:43.593Z,1.80
2023-10-22T08:25:10.806Z,1.65
2023-10-22T08:27:37.921Z,1.35
2023-10-22T08:30:05.644Z,2.25
2023-10-22T08:32:36.081Z,2.85
2023-10-22T08:35:03.574Z,0.93
2023-10-22T08:37:30.572Z,1.60
2023-10-22T08:39:57.680Z,2.22
2023-10-22T08:42:24.920Z,2.05
2023-10-22T08:44:53.569Z,4.15
2023-10-22T08:47:21.067Z,2.22
2023-10-22T08:49:49.651Z,2.78
2023-10-22T08:52:16.709Z,3.10
2023-10-22T08:54:46.311Z,1.67
2023-10-22T08:57:13.593Z,2.13
2023-10-22T08:59:40.874Z,1.17
2023-10-22T09:02:12.534Z,2.47
2023-10-22T09:04:40.426Z,1.77
2023-10-22T09:07:07.751Z,1.60
2023-10-22T09:09:39.496Z,4.40
2023-10-22T09:12:10.217Z,3.47
2023-10-22T09:14:38.095Z,1.83
2023-10-22T09:17:20.699Z,1.48
2023-10-22T09:19:48.796Z,2.22
2023-10-22T09:22:23.136Z,1.33
2023-10-22T09:24:51.383Z,2.45
2023-10-22T09:27:28.651Z,1.50
2023-10-22T09:29:57.306Z,2.83
2023-10-22T09:32:24.491Z,1.35
2023-10-22T09:34:51.793Z,1.40
2023-10-22T09:37:19.015Z,3.90
2023-10-22T09:39:46.238Z,1.73
2023-10-22T09:42:17.350Z,1.13
2023-10-22T09:44:46.135Z,2.05
2023-10-22T09:47:19.488Z,2.55
2023-10-22T09:49:52.177Z,2.15
2023-10-22T09:52:19.332Z,3.22
2023-10-22T09:54:46.465Z,2.88
2023-10-22T09:57:17.455Z,2.90
2023-10-22T09:59:48.564Z,1.23
2023-10-22T10:02:22.909Z,3.38
2023-10-22T10:04:50.967Z,1.95
2023-10-22T10:07:18.859Z,2.38
2023-10-22T10:09:46.004Z,2.75
2023-10-22T10:12:17.867Z,2.40
2023-10-22T10:14:49.314Z,2.13
2023-10-22T10:17:17.935Z,1.95
2023-10-22T10:19:45.014Z,3.90
2023-10-22T10:22:26.975Z,2.80
2023-10-22T10:24:54.177Z,1.63
2023-10-22T10:27:21.556Z,1.48
2023-10-22T10:30:14.799Z,2.38
2023-10-22T10:32:52.481Z,1.65
2023-10-22T10:35:28.896Z,0.90
2023-10-22T10:38:22.923Z,2.40
2023-10-22T10:40:52.009Z,0.70
2023-10-22T10:43:22.000Z,1.08
2023-10-22T10:46:27.353Z,3.45
2023-10-22T10:48:54.719Z,2.30
2023-10-22T10:51:23.238Z,1.50
2023-10-22T10:54:02.468Z,1.73
2023-10-22T10:57:08.927Z,3.47
2023-10-22T10:59:37.861Z,3.38
2023-10-22T11:02:11.366Z,1.88
2023-10-22T11:04:40.384Z,1.70
2023-10-22T11:09:39.680Z,1.92
2023-10-22T11:12:07.685Z,1.95
2023-10-22T11:14:38.502Z,2.08
2023-10-22T11:17:07.453Z,1.27
2023-10-22T11:19:35.170Z,0.82
2023-10-22T11:22:02.493Z,1.65
2023-10-22T11:24:34.118Z,1.13
2023-10-22T11:27:02.907Z,2.55
2023-10-22T11:29:30.379Z,1.80
2023-10-22T11:31:58.908Z,1.63
2023-10-22T11:34:26.538Z,1.27
2023-10-22T11:36:58.281Z,2.95
2023-10-22T11:42:03.327Z,1.27
2023-10-22T11:44:43.877Z,2.65
2023-10-22T11:47:27.331Z,0.80
2023-10-22T11:49:55.807Z,1.35
2023-10-22T11:52:38.771Z,1.65
2023-10-22T11:55:21.041Z,1.58
2023-10-22T11:57:56.558Z,1.50
2023-10-22T12:00:23.698Z,2.20
2023-10-22T12:02:50.831Z,1.95
2023-10-22T12:05:17.947Z,2.88
2023-10-22T12:07:44.929Z,3.47
2023-10-22T12:10:12.132Z,4.40
2023-10-22T12:12:39.624Z,4.72
2023-10-22T12:15:07.898Z,2.15
2023-10-22T12:17:34.969Z,1.17
2023-10-22T12:20:02.586Z,2.28
2023-10-22T12:22:29.782Z,4.95
2023-10-22T12:24:58.566Z,3.08
2023-10-22T12:27:26.585Z,1.60
2023-10-22T12:29:54.608Z,1.17
2023-10-22T12:32:21.905Z,2.95
2023-10-22T12:34:48.986Z,1.20
2023-10-22T12:37:16.045Z,2.78
2023-10-22T12:39:43.775Z,3.30
2023-10-22T12:42:12.046Z,2.63
2023-10-22T12:44:42.792Z,0.98
2023-10-22T12:47:14.193Z,1.50
2023-10-22T12:49:42.008Z,1.35
2023-10-22T12:52:12.589Z,2.50
2023-10-22T12:54:42.657Z,1.25
2023-10-22T12:57:12.242Z,3.55
2023-10-22T12:59:40.928Z,1.70
2023-10-22T13:02:08.937Z,3.03
2023-10-22T13:04:36.188Z,1.83
2023-10-22T13:07:03.473Z,1.25
2023-10-22T13:09:30.765Z,5.25
2023-10-22T13:11:57.830Z,2.65
2023-10-22T13:14:24.965Z,2.53
2023-10-22T13:16:52.034Z,3.63
2023-10-22T13:19:19.288Z,3.70
2023-10-22T13:21:48.529Z,3.20
2023-10-22T13:24:15.868Z,1.67
2023-10-22T13:26:43.076Z,1.60
2023-10-22T13:29:10.158Z,1.83
2023-10-22T13:31:37.442Z,1.23
2023-10-22T13:34:05.810Z,1.80
2023-10-22T13:36:33.062Z,0.98
2023-10-22T13:39:00.588Z,1.13
2023-10-22T13:41:27.908Z,0.98
2023-10-22T13:43:54.937Z,2.22
2023-10-22T13:46:23.361Z,2.05
2023-10-22T13:48:50.468Z,1.67
2023-10-22T13:51:18.642Z,1.65
2023-10-22T13:53:45.785Z,0.57
2023-10-22T13:56:12.875Z,1.10
2023-10-22T13:58:40.065Z,2.47
2023-10-22T14:01:13.271Z,1.23
2023-10-22T14:03:41.019Z,0.47
2023-10-22T14:06:08.278Z,1.30
2023-10-22T14:08:35.356Z,1.02
2023-10-22T14:11:02.440Z,2.58
2023-10-22T14:13:29.459Z,1.38
2023-10-22T14:16:07.124Z,1.17
2023-10-22T14:18:34.300Z,2.40
2023-10-22T14:21:11.047Z,2.17
2023-10-22T14:23:38.977Z,1.27
2023-10-22T14:26:06.081Z,1.98
2023-10-22T14:28:33.250Z,0.98
2023-10-22T14:31:00.324Z,1.75
2023-10-22T14:33:27.491Z,2.05
2023-10-22T14:36:07.185Z,2.15
2023-10-22T14:38:34.377Z,1.67
2023-10-22T14:41:02.634Z,2.85
2023-10-22T14:43:30.028Z,1.20
2023-10-22T14:46:03.865Z,1.05
2023-10-22T14:48:31.263Z,1.73
2023-10-22T14:51:00.396Z,0.93
2023-10-22T14:53:27.762Z,1.48
2023-10-22T14:55:58.500Z,1.50
2023-10-22T14:58:25.898Z,0.80
2023-10-22T15:00:53.008Z,1.80
2023-10-22T15:03:20.370Z,1.85
2023-10-22T15:05:48.350Z,2.55
2023-10-22T15:08:15.567Z,2.17
2023-10-22T15:10:43.610Z,1.95
2023-10-22T15:13:10.910Z,4.07
2023-10-22T15:15:49.739Z,1.90
2023-10-22T15:18:17.155Z,1.08
2023-10-22T15:20:47.260Z,1.40
2023-10-22T15:23:16.163Z,1.00
2023-10-22T15:25:45.579Z,0.50
2023-10-22T15:28:12.880Z,0.80
2023-10-22T15:30:40.334Z,0.73
2023-10-22T15:33:07.550Z,1.25
2023-10-22T15:35:34.625Z,2.13
2023-10-22T15:38:03.048Z,1.08
2023-10-22T15:40:31.201Z,1.17
2023-10-22T15:42:58.266Z,1.45
2023-10-22T15:45:26.322Z,1.48
2023-10-22T15:47:57.441Z,2.47
2023-10-22T15:50:25.337Z,0.65
2023-10-22T15:52:52.754Z,1.95
2023-10-22T15:55:20.089Z,2.20
2023-10-22T15:57:52.780Z,2.58
2023-10-22T16:00:22.714Z,0.63
2023-10-22T16:02:50.339Z,3.70
2023-10-22T16:05:18.807Z,1.85
2023-10-22T16:07:45.949Z,2.60
2023-10-22T16:10:13.317Z,2.83
2023-10-22T16:12:41.025Z,1.73
2023-10-22T16:15:09.185Z,1.70
2023-10-22T16:17:41.163Z,2.60
2023-10-22T16:20:09.436Z,4.00
2023-10-22T16:22:36.902Z,1.25
2023-10-22T16:25:04.380Z,1.08
2023-10-22T16:27:32.568Z,3.53
2023-10-22T16:29:59.819Z,0.77
2023-10-22T16:32:27.155Z,2.33
2023-10-22T16:34:54.219Z,4.18
2023-10-22T16:37:21.343Z,1.20
2023-10-22T16:39:48.385Z,1.30
2023-10-22T16:42:15.491Z,1.63
2023-10-22T16:44:42.750Z,3.05
2023-10-22T16:47:09.919Z,2.08
2023-10-22T16:49:37.217Z,1.27
2023-10-22T16:52:05.172Z,1.30
2023-10-22T16:54:32.319Z,2.50
2023-10-22T16:57:01.717Z,7.78
2023-10-22T16:59:28.867Z,10.82
2023-10-22T17:01:55.942Z,20.58
2023-10-22T17:04:23.078Z,17.90
2023-10-22T17:06:50.224Z,14.88
2023-10-22T17:09:17.374Z,13.50
2023-10-22T17:11:44.629Z,10.10
2023-10-22T17:14:11.666Z,6.80
2023-10-22T17:16:38.792Z,4.70
2023-10-22T17:19:06.001Z,3.38
2023-10-22T17:21:34.136Z,3.90
2023-10-22T17:24:01.786Z,4.15
2023-10-22T17:26:29.178Z,5.68
2023-10-22T17:28:56.524Z,7.82
2023-10-22T17:31:25.618Z,5.75
2023-10-22T17:34:04.926Z,6.55
2023-10-22T17:36:33.401Z,8.23
2023-10-22T17:39:00.618Z,7.38
2023-10-22T17:41:27.943Z,7.57
2023-10-22T17:43:55.051Z,8.45
2023-10-22T17:46:22.348Z,9.75
2023-10-22T17:48:50.569Z,8.38
2023-10-22T17:51:18.633Z,9.82
2023-10-22T17:53:48.404Z,7.60
2023-10-22T17:56:15.547Z,9.73
2023-10-22T17:58:42.678Z,8.85
2023-10-22T18:01:10.009Z,11.43
2023-10-22T18:03:40.552Z,12.05
2023-10-22T18:06:08.277Z,7.88
2023-10-22T18:08:36.390Z,7.90
2023-10-22T18:11:04.262Z,7.80
2023-10-22T18:13:32.569Z,5.50
2023-10-22T18:15:59.892Z,5.70
2023-10-22T18:18:27.293Z,7.72
2023-10-22T18:20:54.562Z,4.13
2023-10-22T18:23:22.196Z,6.20
2023-10-22T18:26:05.296Z,5.47
2023-10-22T18:28:32.835Z,5.07
2023-10-22T18:31:00.059Z,5.35
2023-10-22T18:33:27.399Z,5.40
2023-10-22T18:35:55.837Z,5.70
2023-10-22T18:38:22.985Z,5.25
2023-10-22T18:40:51.569Z,3.58
2023-10-22T18:43:18.997Z,4.60
2023-10-22T18:45:46.465Z,7.78
2023-10-22T18:48:14.470Z,6.95
2023-10-22T18:50:41.784Z,5.53
2023-10-22T18:53:08.960Z,10.93
2023-10-22T18:55:38.750Z,13.63
2023-10-22T18:58:05.937Z,12.20
2023-10-22T19:00:33.286Z,15.23
2023-10-22T19:03:00.615Z,12.75
2023-10-22T19:05:27.861Z,11.70
2023-10-22T19:07:55.131Z,9.75
2023-10-22T19:10:22.520Z,7.50
2023-10-22T19:12:49.810Z,8.18
2023-10-22T19:15:17.434Z,7.18
2023-10-22T19:17:44.538Z,6.53
2023-10-22T19:20:11.887Z,4.88
2023-10-22T19:22:39.098Z,6.18
2023-10-22T19:25:06.658Z,9.05
2023-10-22T19:27:37.391Z,8.07
2023-10-22T19:30:06.369Z,8.90
2023-10-22T19:32:36.525Z,8.25
2023-10-22T19:35:04.113Z,8.90
2023-10-22T19:37:31.197Z,9.93
2023-10-22T19:39:58.598Z,15.10
2023-10-22T19:42:25.954Z,13.05
2023-10-22T19:44:56.204Z,12.48
2023-10-22T19:47:23.422Z,11.18
2023-10-22T19:49:50.667Z,10.10
2023-10-22T19:52:33.679Z,12.25
2023-10-22T19:55:05.429Z,9.32
2023-10-22T19:57:33.422Z,7.82
2023-10-22T20:00:00.642Z,7.43
2023-10-22T20:02:27.962Z,8.00
2023-10-22T20:04:55.466Z,8.15
2023-10-22T20:07:22.654Z,8.10
2023-10-22T20:09:50.131Z,9.77
2023-10-22T20:12:17.340Z,8.10
2023-10-22T20:14:44.424Z,9.90
2023-10-22T20:17:11.594Z,11.02
2023-10-22T20:19:39.026Z,9.02
2023-10-22T20:22:08.509Z,9.43
2023-10-22T20:24:35.936Z,10.35
2023-10-22T20:27:03.073Z,7.80
2023-10-22T20:29:30.162Z,7.60
2023-10-22T20:31:57.312Z,7.03
2023-10-22T20:34:24.939Z,6.43
2023-10-22T20:36:53.001Z,6.70
2023-10-22T20:39:20.101Z,5.47
2023-10-22T20:41:47.580Z,4.00
2023-10-22T20:44:14.887Z,5.68
2023-10-22T20:46:42.136Z,4.18
2023-10-22T20:49:09.461Z,5.47
2023-10-22T20:51:38.918Z,5.15
2023-10-22T20:54:06.136Z,8.63
2023-10-22T20:56:33.322Z,8.20
2023-10-22T20:59:00.423Z,6.55
2023-10-22T21:01:27.597Z,6.15
2023-10-22T21:03:54.942Z,4.97
2023-10-22T21:06:22.236Z,4.88
2023-10-22T21:08:49.464Z,3.95
2023-10-22T21:11:17.940Z,5.32
2023-10-22T21:13:46.340Z,5.40
2023-10-22T21:16:14.753Z,6.18
2023-10-22T21:18:42.845Z,5.65
2023-10-22T21:21:10.170Z,5.05
2023-10-22T21:23:39.553Z,4.93
2023-10-22T21:26:07.402Z,5.30
2023-10-22T21:28:34.654Z,4.20
2023-10-22T21:31:01.761Z,4.63
2023-10-22T21:33:28.955Z,4.90
2023-10-22T21:36:05.866Z,4.70
2023-10-22T21:38:33.249Z,5.72
2023-10-22T21:41:00.952Z,4.85
2023-10-22T21:43:28.274Z,4.50
2023-10-22T21:46:08.636Z,4.95
2023-10-22T21:48:36.107Z,3.75
2023-10-22T21:51:03.308Z,4.78
2023-10-22T21:53:30.450Z,3.80
2023-10-22T21:55:58.400Z,4.22
2023-10-22T21:58:25.566Z,3.85
